Corozal, Belize
Current Conditions -  °F | °C
As of 8:42 AM on Thursday 30 Oct 2014 (Local Time) from MMCM Reporting Station
Broken Clouds Broken Clouds  
Wind Chill: 77°   Ceiling: 12000
Heat Index: 79°   Visibility: 7mi
Dew Point: 68°   Wind: 7mph
Humidity: 74%   Direction: 30°NNE
Pressure: 29.96"   Gusts: NA
Location:  18.4°N, 88.39°W
Report Text: MMCM 301442Z 03006KT 7SM SCT020 BKN120 25/20 A2996 RMK SLP147 5//// 907 8/530 RTS
Loading
Personal Weather Stations






























Interactive Weather Map New forecast layout! Learn more

10-Day Weather Forecast

Advertisements
Track Severe Weather on mobile